createdAt,value
2022-11-15T00:01:18.924Z,62.08
2022-11-15T00:03:47.346Z,64.82
2022-11-15T00:06:14.490Z,63.47
2022-11-15T00:08:41.535Z,58.67
2022-11-15T00:11:11.050Z,63.10
2022-11-15T00:13:38.084Z,60.72
2022-11-15T00:16:08.207Z,60.10
2022-11-15T00:18:35.257Z,61.50
2022-11-15T00:21:10.493Z,59.83
2022-11-15T00:23:38.367Z,63.20
2022-11-15T00:26:05.612Z,65.40
2022-11-15T00:28:32.752Z,63.85
2022-11-15T00:31:04.315Z,60.43
2022-11-15T00:33:32.511Z,58.55
2022-11-15T00:36:11.005Z,63.27
2022-11-15T00:38:43.482Z,57.43
2022-11-15T00:41:10.626Z,56.97
2022-11-15T00:43:37.997Z,52.78
2022-11-15T00:46:05.137Z,56.45
2022-11-15T00:48:34.547Z,55.55
2022-11-15T00:51:02.119Z,60.97
2022-11-15T00:53:30.196Z,54.70
2022-11-15T00:55:57.421Z,54.60
2022-11-15T00:58:24.995Z,57.30
2022-11-15T01:00:52.872Z,56.88
2022-11-15T01:03:23.749Z,52.97
2022-11-15T01:05:50.591Z,55.57
2022-11-15T01:08:18.217Z,53.00
2022-11-15T01:10:44.995Z,57.25
2022-11-15T01:13:11.946Z,59.80
2022-11-15T01:15:42.652Z,58.70
2022-11-15T01:18:10.569Z,63.03
2022-11-15T01:20:44.044Z,59.35
2022-11-15T01:23:10.955Z,57.25
2022-11-15T01:25:37.673Z,52.63
2022-11-15T01:28:04.449Z,57.77
2022-11-15T01:30:31.113Z,57.13
2022-11-15T01:32:57.736Z,57.67
2022-11-15T01:35:24.480Z,59.83
2022-11-15T01:37:51.421Z,56.70
2022-11-15T01:40:18.206Z,55.90
2022-11-15T01:42:44.824Z,56.27
2022-11-15T01:45:17.921Z,57.37
2022-11-15T01:47:49.780Z,60.60
2022-11-15T01:50:23.297Z,56.47
2022-11-15T01:52:50.053Z,57.27
2022-11-15T01:55:28.496Z,56.90
2022-11-15T01:58:00.651Z,52.73
2022-11-15T02:00:27.929Z,55.57
2022-11-15T02:02:54.790Z,52.60
2022-11-15T02:05:21.530Z,57.43
2022-11-15T02:07:49.077Z,51.63
2022-11-15T02:10:20.894Z,53.63
2022-11-15T02:12:48.697Z,53.03
2022-11-15T02:15:15.949Z,54.03
2022-11-15T02:18:00.061Z,51.00
2022-11-15T02:21:01.451Z,55.73
2022-11-15T02:23:57.197Z,50.60
2022-11-15T02:26:49.015Z,54.27
2022-11-15T02:29:29.054Z,53.67
2022-11-15T02:32:09.550Z,57.00
2022-11-15T02:35:02.833Z,59.73
2022-11-15T02:37:52.178Z,56.90
2022-11-15T02:40:38.514Z,56.47
2022-11-15T02:43:33.049Z,54.17
2022-11-15T02:46:12.066Z,54.70
2022-11-15T02:48:40.198Z,54.42
2022-11-15T02:51:07.282Z,53.58
2022-11-15T02:53:34.553Z,56.72
2022-11-15T02:56:01.767Z,56.10
2022-11-15T02:58:28.561Z,49.88
2022-11-15T03:01:11.148Z,49.47
2022-11-15T03:03:56.937Z,54.60
2022-11-15T03:06:38.780Z,51.83
2022-11-15T03:09:35.174Z,47.08
2022-11-15T03:12:30.822Z,49.45
2022-11-15T03:15:02.903Z,48.47
2022-11-15T03:17:32.122Z,46.72
2022-11-15T03:20:02.268Z,52.13
2022-11-15T03:22:31.935Z,47.03
2022-11-15T03:25:04.370Z,47.72
2022-11-15T03:27:37.409Z,44.55
2022-11-15T03:30:08.065Z,47.17
2022-11-15T03:32:47.566Z,47.83
2022-11-15T03:35:19.583Z,43.45
2022-11-15T03:38:14.016Z,43.35
2022-11-15T03:40:42.399Z,44.40
2022-11-15T03:43:21.761Z,44.45
2022-11-15T03:45:57.238Z,44.55
2022-11-15T03:48:31.895Z,42.53
2022-11-15T03:50:58.779Z,42.03
2022-11-15T03:53:25.689Z,43.33
2022-11-15T03:55:52.729Z,42.03
2022-11-15T03:58:19.583Z,43.75
2022-11-15T04:00:48.777Z,40.25
2022-11-15T04:03:15.502Z,38.20
2022-11-15T04:05:42.298Z,38.33
2022-11-15T04:08:09.207Z,39.10
2022-11-15T04:10:36.190Z,37.60
2022-11-15T04:13:03.661Z,41.95
2022-11-15T04:15:31.213Z,37.25
2022-11-15T04:17:58.674Z,38.42
2022-11-15T04:20:46.914Z,36.42
2022-11-15T04:23:40.180Z,35.63
2022-11-15T04:26:13.575Z,39.53
2022-11-15T04:28:58.996Z,32.78
2022-11-15T04:31:26.647Z,36.50
2022-11-15T04:33:53.775Z,36.20
2022-11-15T04:36:39.522Z,34.33
2022-11-15T04:39:06.322Z,33.42
2022-11-15T04:41:32.987Z,35.67
2022-11-15T04:43:59.736Z,33.70
2022-11-15T04:46:26.963Z,35.42
2022-11-15T04:48:58.229Z,36.78
2022-11-15T04:51:25.882Z,33.25
2022-11-15T04:53:52.807Z,31.27
2022-11-15T04:56:19.484Z,31.45
2022-11-15T04:58:46.481Z,34.55
2022-11-15T05:01:15.691Z,28.98
2022-11-15T05:04:02.017Z,30.70
2022-11-15T05:06:29.104Z,33.20
2022-11-15T05:08:56.423Z,28.80
2022-11-15T05:11:23.343Z,28.55
2022-11-15T05:13:50.487Z,25.48
2022-11-15T05:16:17.260Z,28.10
2022-11-15T05:18:43.994Z,29.60
2022-11-15T05:21:16.931Z,25.10
2022-11-15T05:23:43.814Z,26.25
2022-11-15T05:26:12.008Z,28.80
2022-11-15T05:28:39.517Z,27.02
2022-11-15T05:31:17.551Z,25.83
2022-11-15T05:33:45.467Z,24.73
2022-11-15T05:36:24.334Z,25.13
2022-11-15T05:38:51.773Z,25.15
2022-11-15T05:41:22.021Z,24.92
2022-11-15T05:43:50.842Z,22.33
2022-11-15T05:46:18.386Z,23.27
2022-11-15T05:48:50.052Z,23.85
2022-11-15T05:51:20.123Z,22.40
2022-11-15T05:53:47.343Z,23.38
2022-11-15T05:56:14.967Z,22.55
2022-11-15T05:58:42.395Z,22.83
2022-11-15T06:01:09.719Z,22.63
2022-11-15T06:03:36.379Z,23.40
2022-11-15T06:06:03.073Z,22.02
2022-11-15T06:08:29.734Z,21.35
2022-11-15T06:10:58.691Z,19.55
2022-11-15T06:13:25.378Z,20.50
2022-11-15T06:15:51.991Z,20.27
2022-11-15T06:18:18.945Z,20.80
2022-11-15T06:20:45.834Z,20.42
2022-11-15T06:23:12.766Z,19.55
2022-11-15T06:25:39.619Z,21.05
2022-11-15T06:28:06.437Z,21.10
2022-11-15T06:30:33.179Z,18.05
2022-11-15T06:33:04.136Z,18.58
2022-11-15T06:35:32.061Z,19.30
2022-11-15T06:38:07.191Z,19.55
2022-11-15T06:40:36.106Z,18.33
2022-11-15T06:43:03.062Z,20.40
2022-11-15T06:45:32.452Z,19.63
2022-11-15T06:47:59.637Z,22.23
2022-11-15T06:50:26.876Z,20.05
2022-11-15T06:52:53.532Z,19.60
2022-11-15T06:55:20.227Z,18.17
2022-11-15T06:57:52.104Z,19.55
2022-11-15T07:00:22.314Z,19.48
2022-11-15T07:02:49.259Z,21.95
2022-11-15T07:05:17.182Z,20.08
2022-11-15T07:07:43.918Z,19.30
2022-11-15T07:10:10.961Z,20.65
2022-11-15T07:12:37.538Z,17.25
2022-11-15T07:15:04.480Z,18.02
2022-11-15T07:17:31.158Z,20.70
2022-11-15T07:19:57.724Z,19.02
2022-11-15T07:22:24.334Z,20.27
2022-11-15T07:24:50.984Z,18.63
2022-11-15T07:27:20.324Z,18.55
2022-11-15T07:29:47.092Z,18.23
2022-11-15T07:32:13.661Z,17.75
2022-11-15T07:34:40.560Z,16.83
2022-11-15T07:37:07.214Z,19.38
2022-11-15T07:39:33.860Z,18.17
2022-11-15T07:42:19.550Z,21.27
2022-11-15T07:44:48.532Z,19.67
2022-11-15T07:47:15.209Z,18.02
2022-11-15T07:49:41.824Z,15.43
2022-11-15T07:52:08.451Z,16.92
2022-11-15T07:54:35.045Z,16.08
2022-11-15T07:57:06.993Z,15.32
2022-11-15T07:59:35.642Z,15.07
2022-11-15T08:02:02.802Z,15.40
2022-11-15T08:04:30.704Z,14.70
2022-11-15T08:07:00.372Z,13.77
2022-11-15T08:09:27.034Z,12.05
2022-11-15T08:11:53.606Z,12.63
2022-11-15T08:14:22.500Z,13.05
2022-11-15T08:16:49.371Z,13.40
2022-11-15T08:19:16.234Z,12.70
2022-11-15T08:21:42.867Z,10.77
2022-11-15T08:24:11.758Z,10.57
2022-11-15T08:26:38.525Z,10.30
2022-11-15T08:29:09.632Z,12.80
2022-11-15T08:31:39.997Z,12.77
2022-11-15T08:34:07.340Z,10.13
2022-11-15T08:36:43.010Z,10.35
2022-11-15T08:39:15.300Z,10.52
2022-11-15T08:41:41.942Z,10.93
2022-11-15T08:44:08.519Z,12.57
2022-11-15T08:46:35.100Z,11.15
2022-11-15T08:49:01.771Z,9.80
2022-11-15T08:51:28.363Z,13.00
2022-11-15T08:53:54.937Z,10.43
2022-11-15T08:56:21.510Z,11.93
2022-11-15T08:58:48.506Z,10.00
2022-11-15T09:01:18.728Z,9.38
2022-11-15T09:03:45.670Z,9.88
2022-11-15T09:06:12.835Z,9.98
2022-11-15T09:08:47.459Z,11.60
2022-11-15T09:11:15.472Z,9.85
2022-11-15T09:13:42.209Z,11.93
2022-11-15T09:16:09.873Z,11.73
2022-11-15T09:18:36.516Z,10.10
2022-11-15T09:21:03.806Z,10.35
2022-11-15T09:23:30.886Z,12.30
2022-11-15T09:26:03.152Z,10.32
2022-11-15T09:28:31.363Z,10.50
2022-11-15T09:31:00.537Z,10.43
2022-11-15T09:33:28.529Z,11.88
2022-11-15T09:36:00.157Z,9.30
2022-11-15T09:38:27.752Z,9.85
2022-11-15T09:41:19.322Z,8.55
2022-11-15T09:44:14.000Z,8.32
2022-11-15T09:46:46.424Z,8.00
2022-11-15T09:49:17.033Z,8.57
2022-11-15T09:51:53.228Z,10.73
2022-11-15T09:54:55.449Z,9.38
2022-11-15T09:57:54.472Z,8.55
2022-11-15T10:00:47.552Z,8.68
2022-11-15T10:03:27.034Z,10.02
2022-11-15T10:05:57.821Z,9.02
2022-11-15T10:09:00.728Z,8.85
2022-11-15T10:11:39.995Z,8.32
2022-11-15T10:14:17.560Z,7.60
2022-11-15T10:17:00.496Z,7.53
2022-11-15T10:19:41.839Z,7.25
2022-11-15T10:22:44.189Z,6.93
2022-11-15T10:25:13.708Z,5.80
2022-11-15T10:28:01.739Z,6.90
2022-11-15T10:30:35.408Z,7.25
2022-11-15T10:33:14.879Z,6.10
2022-11-15T10:35:43.278Z,8.02
2022-11-15T10:38:11.844Z,6.40
2022-11-15T10:40:43.399Z,6.95
2022-11-15T10:43:20.219Z,8.40
2022-11-15T10:45:50.402Z,5.65
2022-11-15T10:48:22.329Z,8.93
2022-11-15T10:50:50.721Z,9.45
2022-11-15T10:53:46.806Z,6.15
2022-11-15T10:56:21.024Z,8.48
2022-11-15T10:58:56.551Z,7.35
2022-11-15T11:01:25.291Z,5.57
2022-11-15T11:04:10.606Z,8.93
2022-11-15T11:06:58.778Z,5.85
2022-11-15T11:09:37.470Z,4.68
2022-11-15T11:12:06.877Z,10.25
2022-11-15T11:14:40.366Z,7.43
2022-11-15T11:17:16.827Z,5.00
2022-11-15T11:20:10.081Z,4.53
2022-11-15T11:22:57.925Z,9.32
2022-11-15T11:25:35.529Z,9.90
2022-11-15T11:28:27.159Z,9.95
2022-11-15T11:31:08.805Z,3.80
2022-11-15T11:33:45.523Z,4.22
2022-11-15T11:36:33.529Z,4.20
2022-11-15T11:39:09.409Z,4.25
2022-11-15T11:41:57.684Z,4.90
2022-11-15T11:44:54.075Z,4.25
2022-11-15T11:47:29.757Z,4.57
2022-11-15T11:50:16.646Z,3.45
2022-11-15T11:53:02.526Z,4.18
2022-11-15T11:55:55.772Z,3.40
2022-11-15T11:58:44.818Z,4.78
2022-11-15T12:01:23.545Z,3.90
2022-11-15T12:03:59.809Z,3.13
2022-11-15T12:06:50.651Z,3.70
2022-11-15T12:09:47.462Z,3.25
2022-11-15T12:12:46.624Z,3.67
2022-11-15T12:15:24.637Z,2.95
2022-11-15T12:17:51.593Z,3.83
2022-11-15T12:20:27.981Z,3.05
2022-11-15T12:23:12.114Z,3.58
2022-11-15T12:26:00.900Z,3.40
2022-11-15T12:29:06.290Z,3.50
2022-11-15T12:31:45.747Z,4.13
2022-11-15T12:34:21.693Z,4.32
2022-11-15T12:36:50.693Z,4.65
2022-11-15T12:39:18.108Z,3.05
2022-11-15T12:41:57.953Z,3.50
2022-11-15T12:44:47.499Z,3.65
2022-11-15T12:47:26.618Z,2.95
2022-11-15T12:49:54.337Z,2.90
2022-11-15T12:52:21.169Z,3.25
2022-11-15T12:54:53.779Z,3.00
2022-11-15T12:57:20.422Z,2.60
2022-11-15T13:00:25.465Z,3.70
2022-11-15T13:03:20.137Z,6.32
2022-11-15T13:05:47.083Z,4.55
2022-11-15T13:08:38.197Z,4.38
2022-11-15T13:11:42.455Z,4.70
2022-11-15T13:14:41.897Z,3.50
2022-11-15T13:17:24.389Z,4.53
2022-11-15T13:20:08.795Z,3.45
2022-11-15T13:22:56.496Z,4.68
2022-11-15T13:25:56.316Z,4.38
2022-11-15T13:28:43.203Z,5.00
2022-11-15T13:31:29.018Z,4.63
2022-11-15T13:34:00.213Z,3.55
2022-11-15T13:36:31.212Z,3.97
2022-11-15T13:39:11.981Z,3.60
2022-11-15T13:41:56.648Z,4.47
2022-11-15T13:44:29.329Z,3.03
2022-11-15T13:47:15.622Z,4.22
2022-11-15T13:49:43.050Z,3.53
2022-11-15T13:52:15.363Z,3.65
2022-11-15T13:54:58.708Z,3.03
2022-11-15T13:57:30.194Z,4.18
2022-11-15T14:00:01.786Z,3.55
2022-11-15T14:02:33.252Z,3.15
2022-11-15T14:05:20.033Z,3.20
2022-11-15T14:08:02.500Z,3.17
2022-11-15T14:10:35.185Z,4.70
2022-11-15T14:13:03.632Z,3.60
2022-11-15T14:15:37.894Z,1.92
2022-11-15T14:18:06.038Z,2.08
2022-11-15T14:20:38.927Z,1.88
2022-11-15T14:23:21.310Z,2.03
2022-11-15T14:25:59.152Z,4.30
2022-11-15T14:28:25.976Z,3.92
2022-11-15T14:30:55.072Z,3.08
2022-11-15T14:33:50.924Z,2.75
2022-11-15T14:36:22.116Z,4.25
2022-11-15T14:38:49.091Z,3.28
2022-11-15T14:41:27.500Z,3.58
2022-11-15T14:43:55.424Z,4.45
2022-11-15T14:46:22.189Z,2.42
2022-11-15T14:48:48.780Z,3.03
2022-11-15T14:51:18.237Z,3.78
2022-11-15T14:53:46.411Z,6.82
2022-11-15T14:56:13.991Z,3.75
2022-11-15T14:58:41.679Z,5.18
2022-11-15T15:01:31.077Z,4.68
2022-11-15T15:07:01.889Z,4.28
2022-11-15T15:09:28.603Z,4.43
2022-11-15T15:11:55.699Z,3.88
2022-11-15T15:14:22.295Z,3.78
2022-11-15T15:16:48.978Z,4.93
2022-11-15T15:19:15.528Z,2.85
2022-11-15T15:21:42.112Z,3.38
2022-11-15T15:24:15.809Z,3.35
2022-11-15T15:26:44.306Z,3.63
2022-11-15T15:29:11.085Z,3.15
2022-11-15T15:31:37.787Z,4.13
2022-11-15T15:34:05.110Z,3.75
2022-11-15T15:36:31.829Z,2.75
2022-11-15T15:38:59.135Z,3.22
2022-11-15T15:41:25.784Z,4.45
2022-11-15T15:43:52.627Z,4.95
2022-11-15T15:46:20.793Z,4.28
2022-11-15T15:48:47.824Z,3.95
2022-11-15T15:51:20.240Z,3.88
2022-11-15T15:53:48.373Z,4.30
2022-11-15T15:56:15.223Z,3.83
2022-11-15T15:58:41.848Z,4.50
2022-11-15T16:01:08.605Z,6.40
2022-11-15T16:03:35.414Z,5.82
2022-11-15T16:06:05.555Z,6.63
2022-11-15T16:08:47.736Z,5.05
2022-11-15T16:11:18.989Z,4.40
2022-11-15T16:13:45.987Z,6.13
2022-11-15T16:16:14.767Z,4.88
2022-11-15T16:18:41.577Z,5.78
2022-11-15T16:21:09.141Z,5.63
2022-11-15T16:23:36.047Z,5.43
2022-11-15T16:26:04.408Z,5.43
2022-11-15T16:28:34.037Z,6.97
2022-11-15T16:31:11.072Z,7.30
2022-11-15T16:33:38.494Z,7.32
2022-11-15T16:36:07.155Z,6.90
2022-11-15T16:38:34.493Z,5.93
2022-11-15T16:41:01.446Z,5.57
2022-11-15T16:43:28.282Z,6.10
2022-11-15T16:45:55.324Z,6.22
2022-11-15T16:48:27.793Z,6.72
2022-11-15T16:50:59.434Z,8.70
2022-11-15T16:53:27.299Z,8.38
2022-11-15T16:55:57.471Z,8.95
2022-11-15T16:58:25.027Z,8.73
2022-11-15T17:00:53.247Z,8.30
2022-11-15T17:03:20.831Z,9.57
2022-11-15T17:05:47.432Z,8.05
2022-11-15T17:08:14.052Z,8.65
2022-11-15T17:10:44.113Z,6.65
2022-11-15T17:13:14.634Z,6.90
2022-11-15T17:15:41.607Z,7.55
2022-11-15T17:18:12.098Z,6.32
2022-11-15T17:20:40.259Z,7.90
2022-11-15T17:23:12.164Z,6.70
2022-11-15T17:25:38.849Z,6.18
2022-11-15T17:28:05.579Z,6.90
2022-11-15T17:30:32.188Z,6.30
2022-11-15T17:32:58.877Z,8.95
2022-11-15T17:35:25.790Z,6.95
2022-11-15T17:37:53.190Z,8.07
2022-11-15T17:40:20.190Z,6.43
2022-11-15T17:42:48.022Z,9.35
2022-11-15T17:45:14.697Z,6.68
2022-11-15T17:47:41.351Z,6.43
2022-11-15T17:50:08.681Z,5.43
2022-11-15T17:52:35.618Z,5.65
2022-11-15T17:55:02.196Z,5.72
2022-11-15T17:57:28.797Z,8.13
2022-11-15T17:59:55.430Z,6.15
2022-11-15T18:02:22.240Z,6.07
2022-11-15T18:04:48.910Z,5.32
2022-11-15T18:07:15.653Z,5.78
2022-11-15T18:09:44.069Z,6.95
2022-11-15T18:12:11.971Z,6.43
2022-11-15T18:14:39.117Z,6.63
2022-11-15T18:17:05.946Z,5.38
2022-11-15T18:19:32.631Z,6.03
2022-11-15T18:22:00.755Z,4.93
2022-11-15T18:24:29.097Z,4.75
2022-11-15T18:26:56.672Z,5.10
2022-11-15T18:29:24.647Z,5.93
2022-11-15T18:31:55.445Z,5.18
2022-11-15T18:34:32.208Z,5.00
2022-11-15T18:37:00.218Z,5.20
2022-11-15T18:39:26.994Z,5.53
2022-11-15T18:41:53.643Z,7.15
2022-11-15T18:44:20.483Z,5.75
2022-11-15T18:46:47.216Z,5.30
2022-11-15T18:49:16.552Z,5.40
2022-11-15T18:51:43.674Z,4.97
2022-11-15T18:54:14.148Z,5.10
2022-11-15T18:56:42.292Z,6.03
2022-11-15T18:59:09.393Z,5.75
2022-11-15T19:01:41.562Z,5.43
2022-11-15T19:04:11.923Z,5.40
2022-11-15T19:06:40.512Z,5.93
2022-11-15T19:09:08.685Z,5.70
2022-11-15T19:11:39.295Z,6.95
2022-11-15T19:14:08.480Z,5.50
2022-11-15T19:16:37.667Z,6.05
2022-11-15T19:19:08.665Z,6.68
2022-11-15T19:21:35.797Z,5.35
2022-11-15T19:24:02.736Z,5.88
2022-11-15T19:26:30.192Z,5.72
2022-11-15T19:28:59.387Z,5.75
2022-11-15T19:31:48.882Z,5.50
2022-11-15T19:34:16.721Z,5.43
2022-11-15T19:36:45.234Z,5.47
2022-11-15T19:39:14.436Z,7.28
2022-11-15T19:41:45.358Z,5.35
2022-11-15T19:44:13.516Z,6.43
2022-11-15T19:46:40.915Z,5.30
2022-11-15T19:49:11.072Z,7.05
2022-11-15T19:51:39.100Z,7.28
2022-11-15T19:54:06.836Z,7.45
2022-11-15T19:56:34.812Z,6.65
2022-11-15T19:59:02.765Z,6.05
2022-11-15T20:01:31.984Z,5.95
2022-11-15T20:04:00.240Z,8.38
2022-11-15T20:06:32.275Z,7.55
2022-11-15T20:08:59.553Z,5.93
2022-11-15T20:11:26.817Z,6.07
2022-11-15T20:14:02.187Z,7.75
2022-11-15T20:16:29.825Z,6.20
2022-11-15T20:18:56.854Z,7.45
2022-11-15T20:21:23.800Z,6.22
2022-11-15T20:23:51.861Z,6.22
2022-11-15T20:26:20.484Z,6.72
2022-11-15T20:28:48.272Z,6.30
2022-11-15T20:31:16.306Z,7.03
2022-11-15T20:33:43.661Z,8.00
2022-11-15T20:36:13.252Z,7.10
2022-11-15T20:38:40.298Z,6.13
2022-11-15T20:41:07.679Z,6.93
2022-11-15T20:43:37.814Z,7.93
2022-11-15T20:46:04.945Z,6.97
2022-11-15T20:48:32.456Z,6.47
2022-11-15T20:51:17.653Z,9.23
2022-11-15T20:53:46.343Z,9.35
2022-11-15T20:56:20.868Z,6.22
2022-11-15T20:58:52.929Z,8.52
2022-11-15T21:01:23.730Z,7.55
2022-11-15T21:03:57.569Z,7.72
2022-11-15T21:06:25.898Z,6.70
2022-11-15T21:09:13.066Z,8.05
2022-11-15T21:11:58.668Z,6.18
2022-11-15T21:14:25.529Z,7.10
2022-11-15T21:16:52.131Z,7.03
2022-11-15T21:19:22.628Z,7.30
2022-11-15T21:21:52.380Z,8.38
2022-11-15T21:24:20.184Z,7.25
2022-11-15T21:26:47.777Z,7.97
2022-11-15T21:29:17.257Z,8.50
2022-11-15T21:31:48.832Z,8.32
2022-11-15T21:36:56.820Z,6.90
2022-11-15T21:39:23.664Z,7.35
2022-11-15T21:41:50.443Z,6.07
2022-11-15T21:44:17.025Z,7.70
2022-11-15T21:46:43.637Z,7.65
2022-11-15T21:49:10.641Z,6.82
2022-11-15T21:51:37.571Z,7.05
2022-11-15T21:54:04.376Z,7.53
2022-11-15T22:00:27.963Z,7.22
2022-11-15T22:48:44.484Z,6.40
